Logo AVAMET
Benvolgut visitant, si us plau, ingressa Recuperar contrasenya

Xàbia platja de l′Arenal

Dades diàries. Acumulats / Últims 30 dies disponibles

Data Temperatura (°C) Humitat rel. (%) Pressió rel. (hPa) Vent (km/h) Precipitació
Mínima Mitjana Màxima Amplitud
tèrmica
Mínima Mitjana Màxima Mínima Mitjana Màxima Predom. Mitjana Ràfega
màxima
Total
(mm)
Índex-n
Mínima Mitjana Màxima Mínima Mitjana Màxima n
0 a 1
P0 max
mm 5'
Dades mensuals acumulades fins l'últim dia disponible
12/2019 6,6 10,8 15,1 14,4 15,2 18,0 22,4 15,8 26 73 97 1.003 1.016 1.025   6,3 61,2 99,6
Dades anuals acumulades fins l'últim dia disponible
2019 2,3 14,8 26,7 19,0 11,1 23,2 40,4 38,1 20 70 97 992 1.015 1.034   5,1 99,8 752,8
Últims 30 dies disponibles
13-12-2019 15,1     19,1     21,1 6,0 47 54 63 1.007 1.009 1.012 W 7,6 41,8 0,0
12-12-2019 11,4     14,9     17,2 5,8 40 47 58 1.010 1.016 1.021 W 6,1 33,8 0,0
11-12-2019 6,6     13,0     21,6 15,0 34 62 85 1.015 1.018 1.022 W 5,3 37,0 0,0
10-12-2019 7,1     13,5     18,1 11,0 30 59 81 1.021 1.023 1.025 WNW 3,1 24,1 0,0
09-12-2019 13,6     17,1     22,4 8,8 26 53 71 1.020 1.022 1.025 W 2,3 22,5 0,0
08-12-2019 7,5     12,6     18,1 10,6 61 82 91 1.020 1.022 1.023 W 2,3 12,9 0,0
07-12-2019 10,3     13,3     16,9 6,6 74 87 93 1.021 1.022 1.023 W 1,9 16,1 0,0
06-12-2019 12,5     14,7     17,0 4,5 76 84 89 1.020 1.021 1.023 WNW 2,7 24,1 0,0
05-12-2019 11,0     14,0     17,1 6,1 73 85 92 1.008 1.015 1.021 NE 3,5 27,4 0,0
04-12-2019 11,0     12,7     15,4 4,4 75 90 97 1.003 1.005 1.008 NW 8,4 51,5 29,8 0,38 3,10
03-12-2019 12,0     14,0     15,2 3,2 74 83 93 1.008 1.013 1.016 ENE 23,3 54,7 9,2 0,64 0,80
02-12-2019 11,7     14,1     15,6 3,9 72 90 97 1.010 1.012 1.015 ENE 13,4 61,2 60,6 0,72 23,30
01-12-2019 10,3     13,7     18,6 8,3 57 79 91 1.009 1.011 1.013 W 2,6 19,3 0,0
30-11-2019 11,8     16,0     22,1 10,3 53 76 89 1.013 1.017 1.020 SO 3,5 33,8 0,0
29-11-2019 12,2     16,7     23,8 11,6 48 66 85 1.015 1.017 1.020 W 2,3 24,1 0,0
28-11-2019 12,9     16,6     20,9 8,0 48 62 82 1.013 1.015 1.016 WNW 2,9 20,9 0,0
27-11-2019 14,2     18,4     23,7 9,5 34 59 87 1.008 1.010 1.013 WNW 3,4 27,4 0,0
26-11-2019 12,5     17,4     22,2 9,7 48 71 87 1.009 1.011 1.014 WNW 2,4 27,4 0,0
25-11-2019 13,6     17,6     21,8 8,2 51 59 69 1.011 1.012 1.014 W 4,5 33,8 0,0
24-11-2019 13,2     15,7     19,0 5,8 39 45 52 1.005 1.009 1.012 WNW 10,0 51,5 0,0
23-11-2019 12,8     15,5     18,1 5,3 42 56 87 992 998 1.005 WNW 9,0 45,1 0,0
22-11-2019 9,6     14,0     16,6 7,0 70 84 90 993 1.001 1.007 SW 7,2 46,7 2,0
21-11-2019 7,4     12,9     18,7 11,3 49 77 92 1.007 1.008 1.010 W 2,1 22,5 0,6
20-11-2019 5,8     11,6     16,2 10,4 48 69 87 1.008 1.011 1.014 W 3,9 24,1 1,0
19-11-2019 6,6     10,7     16,3 9,7 44 64 82 1.014 1.015 1.017 W 2,1 16,1 0,0
18-11-2019 9,8     12,9     14,9 5,1 55 70 89 1.006 1.010 1.015 NW 4,2 35,4 3,0
17-11-2019 8,6     13,7     19,0 10,4 36 50 79 1.008 1.011 1.013 W 3,2 29,0 1,4
16-11-2019 8,2     11,4     14,9 6,7 46 56 73 1.005 1.010 1.014 WNW 3,5 27,4 0,0
15-11-2019 9,2     12,7     16,6 7,4 38 52 66 1.000 1.002 1.005 W 2,7 32,2 0,0
14-11-2019 10,3     14,8     16,9 6,6 43 68 85 999 1.002 1.009 W 3,4 37,0 0,2
Últims 13 mesos disponibles
11/2019 5,8 12,2 19,9 16,1 14,9 20,4 28,8 23,0 41 58 84 998 1.010 1.017 W 4,7 57,9 12,4
10/2019 10,2 16,1 21,2 20,6 18,4 25,0 31,8 21,6 45 73 86 1.007 1.015 1.020 W 3,9 59,5 62,2
09/2019 14,9 20,5 24,6 24,3 23,3 27,8 34,3 19,4 62 78 90 1.009 1.016 1.022 W 6,2 99,8 179,4
08/2019 19,8 22,9 26,7 26,9 27,4 30,4 38,7 18,9 56 74 82 1.009 1.014 1.018 W 5,6 43,5 15,4
07/2019 20,6 22,9 25,8 27,0 27,4 31,0 40,4 19,8 50 71 81 1.004 1.012 1.019 SE 4,8 57,9 2,8
06/2019 13,0 18,4 23,2 22,7 20,4 26,6 35,6 22,6 51 71 84 1.007 1.014 1.021 WNW 5,6 43,5 0,2
05/2019 11,3 14,9 20,0 19,0 18,5 23,0 29,8 18,5 54 71 82 1.004 1.014 1.023 WSW 5,4 43,5 11,4
04/2019 8,4 12,1 15,2 16,0 15,4 20,1 28,0 19,6 47 71 90 998 1.012 1.024 WNW 5,7 54,7 337,0
03/2019 7,1 9,6 14,3 14,5 13,6 18,9 27,7 20,6 47 66 88 1.009 1.022 1.029 WSW 5,1 46,7 28,4
02/2019 4,7 7,5 12,2 12,3 12,0 17,6 21,9 17,2 36 67 82 995 1.024 1.032 WSW 4,5 54,7 0,8
01/2019 2,3 7,0 12,2 11,6 11,1 16,8 21,8 19,5 38 64 84 1.002 1.018 1.029 WSW 4,5 59,5 3,2
12/2018 5,3 8,5 10,5 13,0 14,2 18,5 21,8 16,5 57 76 86 1.008 1.024 1.030 WSW 2,9 45,1 20,8
11/2018 6,4 11,7 17,5 15,5 16,8 19,8 24,9 18,5 52 73 91 999 1.014 1.022 WNW 4,3 69,2 116,8
Tots els anys disponibles
2018 3,0 14,7 27,2 18,8 9,7 23,0 37,6 34,6 43 75 91 998 1.017 1.030 WSW 4,7 69,2 650,6
2017 0,7 14,5 27,6 18,7 10,4 22,9 34,4 33,7 5,1 80,5 480,4
Temperatura (°C)
Humitat relativa (%)
Velocitat del vent i ràfega màxima (km/h)
Direcció del vent (°)
Pressió (hPa)
Precipitació (mm)
Nota sobre les dades: s'avisa a l'usuari de la provisionalitat i no oficialitat d'aquestes dades
Logo AVAMET blanc
Web allotjada a Sollutia
Llicència de Creative CommonsLa web d'AVAMET i els seus continguts estan subjectes a una llicència de
Reconeixement - No Comercial - Compartir igual
Últimes estacions: Aielo de Malferit - Centre (Soci), Faura (Inforatge), Benifairó de les Valls (Inforatge), Xàbia - Les Valls (Soci) - - -